createdAt,value
2019-01-04T00:02:06.989Z,31.73
2019-01-04T00:04:54.675Z,29.47
2019-01-04T00:07:42.255Z,34.33
2019-01-04T00:10:29.815Z,30.73
2019-01-04T00:13:17.830Z,31.50
2019-01-04T00:16:05.223Z,29.27
2019-01-04T00:18:52.562Z,31.07
2019-01-04T00:21:39.859Z,31.63
2019-01-04T00:24:27.465Z,31.57
2019-01-04T00:27:14.836Z,32.67
2019-01-04T00:30:02.269Z,33.17
2019-01-04T00:32:49.840Z,31.20
2019-01-04T00:35:37.452Z,29.80
2019-01-04T00:38:25.120Z,28.67
2019-01-04T00:41:12.801Z,29.40
2019-01-04T00:44:00.523Z,31.30
2019-01-04T00:46:47.718Z,35.10
2019-01-04T00:49:34.897Z,34.13
2019-01-04T00:52:22.470Z,30.10
2019-01-04T00:55:34.403Z,27.07
2019-01-04T00:58:41.012Z,33.30
2019-01-04T01:02:08.477Z,31.83
2019-01-04T01:05:25.241Z,30.43
2019-01-04T01:08:55.881Z,32.87
2019-01-04T01:12:25.187Z,33.70
2019-01-04T01:16:12.008Z,31.20
2019-01-04T01:19:23.759Z,30.63
2019-01-04T01:23:02.478Z,33.27
2019-01-04T01:26:42.965Z,35.67
2019-01-04T01:30:22.073Z,39.07
2019-01-04T01:33:28.880Z,35.03
2019-01-04T01:37:12.430Z,33.57
2019-01-04T01:40:53.624Z,32.77
2019-01-04T01:44:23.758Z,39.60
2019-01-04T01:47:37.319Z,35.40
2019-01-04T01:50:59.578Z,35.40
2019-01-04T01:53:47.232Z,34.40
2019-01-04T01:56:34.652Z,35.87
2019-01-04T01:59:22.289Z,41.57
2019-01-04T02:02:09.439Z,39.70
2019-01-04T02:04:56.865Z,40.63
2019-01-04T02:07:44.671Z,35.03
2019-01-04T02:10:32.116Z,40.73
2019-01-04T02:13:19.905Z,36.90
2019-01-04T02:16:07.340Z,34.83
2019-01-04T02:18:54.621Z,35.80
2019-01-04T02:21:42.201Z,36.47
2019-01-04T02:24:30.795Z,35.97
2019-01-04T02:27:18.087Z,41.80
2019-01-04T02:30:07.427Z,39.73
2019-01-04T02:32:54.975Z,42.13
2019-01-04T02:35:42.667Z,45.90
2019-01-04T02:38:30.227Z,46.53
2019-01-04T02:41:17.861Z,47.70
2019-01-04T02:44:05.429Z,46.17
2019-01-04T02:46:52.703Z,46.80
2019-01-04T02:49:40.288Z,43.60
2019-01-04T02:52:28.117Z,43.53
2019-01-04T02:55:16.283Z,49.30
2019-01-04T02:58:04.029Z,44.17
2019-01-04T03:00:51.930Z,43.23
2019-01-04T03:03:39.730Z,42.47
2019-01-04T03:06:27.554Z,42.73
2019-01-04T03:09:14.829Z,42.17
2019-01-04T03:12:02.782Z,42.43
2019-01-04T03:14:50.431Z,39.57
2019-01-04T03:17:38.408Z,41.07
2019-01-04T03:20:25.993Z,43.43
2019-01-04T03:23:13.799Z,40.40
2019-01-04T03:26:01.756Z,40.97
2019-01-04T03:28:49.551Z,44.27
2019-01-04T03:31:37.057Z,48.10
2019-01-04T03:34:24.625Z,42.10
2019-01-04T03:37:11.748Z,41.33
2019-01-04T03:39:59.201Z,44.07
2019-01-04T03:42:46.311Z,43.57
2019-01-04T03:45:33.930Z,40.60
2019-01-04T03:48:21.354Z,44.30
2019-01-04T03:51:08.692Z,42.57
2019-01-04T03:53:56.349Z,40.77
2019-01-04T03:56:44.119Z,40.70
2019-01-04T03:59:31.433Z,42.73
2019-01-04T04:02:18.554Z,42.70
2019-01-04T04:05:06.033Z,49.33
2019-01-04T04:07:53.680Z,41.90
2019-01-04T04:10:41.433Z,40.90
2019-01-04T04:13:28.893Z,37.13
2019-01-04T04:16:16.295Z,39.53
2019-01-04T04:19:04.123Z,40.07
2019-01-04T04:21:52.306Z,41.17
2019-01-04T04:24:40.539Z,46.33
2019-01-04T04:27:27.954Z,39.83
2019-01-04T04:30:15.646Z,40.57
2019-01-04T04:33:03.682Z,42.87
2019-01-04T04:35:51.604Z,41.83
2019-01-04T04:38:39.164Z,41.20
2019-01-04T04:41:27.089Z,42.77
2019-01-04T04:44:22.070Z,42.20
2019-01-04T04:47:10.684Z,44.67
2019-01-04T04:49:58.097Z,39.43
2019-01-04T04:52:46.634Z,37.27
2019-01-04T04:55:34.781Z,42.30
2019-01-04T04:58:22.743Z,41.37
2019-01-04T05:01:10.476Z,42.40
2019-01-04T05:03:58.452Z,41.20
2019-01-04T05:06:46.758Z,43.83
2019-01-04T05:09:35.150Z,44.67
2019-01-04T05:12:22.978Z,50.03
2019-01-04T05:18:03.965Z,43.57
2019-01-04T05:20:51.949Z,46.93
2019-01-04T05:23:39.778Z,38.53
2019-01-04T05:26:27.348Z,41.47
2019-01-04T05:29:15.166Z,48.97
2019-01-04T05:32:02.848Z,45.90
2019-01-04T05:34:50.683Z,43.90
2019-01-04T05:37:38.913Z,45.87
2019-01-04T05:40:26.598Z,41.50
2019-01-04T05:43:14.621Z,43.03
2019-01-04T05:46:03.135Z,41.80
2019-01-04T05:48:51.053Z,41.60
2019-01-04T05:51:42.347Z,55.03
2019-01-04T05:54:30.084Z,49.73
2019-01-04T05:57:18.484Z,48.90
2019-01-04T06:00:13.957Z,40.03
2019-01-04T06:02:57.664Z,37.27
2019-01-04T06:05:47.536Z,40.87
2019-01-04T06:08:35.295Z,38.77
2019-01-04T06:11:22.927Z,35.07
2019-01-04T06:14:11.486Z,35.53
2019-01-04T06:16:59.544Z,34.67
2019-01-04T06:19:47.539Z,39.43
2019-01-04T06:22:35.751Z,40.73
2019-01-04T06:25:27.443Z,39.47
2019-01-04T06:28:15.295Z,39.00
2019-01-04T06:31:02.933Z,36.73
2019-01-04T06:33:50.437Z,44.23
2019-01-04T06:36:38.348Z,38.53
2019-01-04T06:39:26.982Z,43.27
2019-01-04T06:42:16.970Z,39.80
2019-01-04T06:45:06.244Z,38.00
2019-01-04T06:47:54.010Z,53.93
2019-01-04T06:50:41.910Z,59.67
2019-01-04T06:53:30.126Z,50.37
2019-01-04T06:56:17.903Z,47.00
2019-01-04T06:59:07.121Z,41.67
2019-01-04T07:01:55.145Z,44.43
2019-01-04T07:04:42.988Z,41.63
2019-01-04T07:07:30.836Z,41.70
2019-01-04T07:10:18.303Z,36.17
2019-01-04T07:13:06.047Z,41.20
2019-01-04T07:15:54.297Z,40.10
2019-01-04T07:18:42.114Z,38.80
2019-01-04T07:21:30.368Z,38.20
2019-01-04T07:24:18.049Z,37.07
2019-01-04T07:27:08.820Z,39.07
2019-01-04T07:29:56.260Z,41.60
2019-01-04T07:32:44.259Z,38.67
2019-01-04T07:35:32.041Z,43.67
2019-01-04T07:38:19.989Z,39.20
2019-01-04T07:41:09.375Z,38.57
2019-01-04T07:43:57.178Z,38.50
2019-01-04T07:46:44.981Z,34.93
2019-01-04T07:49:33.293Z,37.33
2019-01-04T07:52:21.210Z,42.23
2019-01-04T07:55:10.910Z,37.17
2019-01-04T07:57:58.841Z,34.83
2019-01-04T08:00:46.408Z,37.00
2019-01-04T08:03:34.009Z,40.33
2019-01-04T08:06:21.650Z,38.20
2019-01-04T08:09:09.789Z,45.47
2019-01-04T08:11:57.541Z,40.83
2019-01-04T08:14:45.657Z,38.67
2019-01-04T08:17:33.977Z,38.30
2019-01-04T08:20:21.771Z,34.90
2019-01-04T08:23:09.883Z,35.03
2019-01-04T08:25:58.206Z,36.40
2019-01-04T08:28:45.929Z,33.40
2019-01-04T08:31:33.656Z,32.60
2019-01-04T08:34:21.247Z,35.83
2019-01-04T08:37:14.843Z,35.83
2019-01-04T08:40:02.978Z,29.50
2019-01-04T08:42:52.957Z,34.37
2019-01-04T08:45:47.546Z,33.90
2019-01-04T08:48:34.978Z,34.50
2019-01-04T08:51:25.875Z,30.53
2019-01-04T08:54:19.771Z,32.70
2019-01-04T08:57:07.600Z,29.57
2019-01-04T08:59:55.725Z,32.23
2019-01-04T09:02:49.828Z,32.57
2019-01-04T09:05:37.312Z,31.73
2019-01-04T09:08:28.153Z,34.63
2019-01-04T09:11:24.939Z,35.03
2019-01-04T09:14:12.824Z,32.27
2019-01-04T09:17:00.872Z,40.90
2019-01-04T09:19:48.428Z,41.57
2019-01-04T09:22:36.699Z,37.50
2019-01-04T09:25:24.417Z,34.83
2019-01-04T09:28:17.882Z,36.97
2019-01-04T09:31:02.150Z,37.00
2019-01-04T09:33:50.188Z,34.57
2019-01-04T09:36:37.762Z,38.43
2019-01-04T09:39:25.208Z,38.00
2019-01-04T09:42:14.618Z,35.40
2019-01-04T09:45:02.567Z,39.60
2019-01-04T09:47:50.223Z,45.60
2019-01-04T09:50:37.980Z,38.97
2019-01-04T09:53:25.667Z,40.73
2019-01-04T09:56:13.099Z,34.40
2019-01-04T09:59:00.826Z,39.73
2019-01-04T10:01:48.220Z,37.40
2019-01-04T10:04:35.549Z,33.23
2019-01-04T10:07:23.001Z,38.77
2019-01-04T10:10:11.983Z,31.73
2019-01-04T10:13:00.150Z,32.87
2019-01-04T10:15:48.162Z,34.00
2019-01-04T10:18:35.602Z,31.07
2019-01-04T10:21:23.294Z,28.13
2019-01-04T10:24:10.732Z,30.77
2019-01-04T10:26:58.193Z,31.43
2019-01-04T10:29:45.188Z,34.37
2019-01-04T10:32:32.911Z,35.37
2019-01-04T10:35:20.127Z,27.27
2019-01-04T10:38:07.765Z,36.67
2019-01-04T10:40:55.093Z,32.57
2019-01-04T10:43:43.009Z,31.20
2019-01-04T10:46:30.633Z,31.50
2019-01-04T10:49:18.200Z,38.57
2019-01-04T10:52:05.834Z,28.63
2019-01-04T10:54:53.274Z,29.03
2019-01-04T10:57:40.667Z,33.87
2019-01-04T11:00:28.314Z,31.93
2019-01-04T11:03:16.334Z,28.87
2019-01-04T11:06:03.739Z,25.13
2019-01-04T11:08:51.137Z,32.47
2019-01-04T11:11:38.620Z,33.17
2019-01-04T11:14:26.287Z,33.90
2019-01-04T11:17:13.610Z,25.13
2019-01-04T11:20:00.971Z,29.93
2019-01-04T11:23:30.018Z,29.33
2019-01-04T11:26:24.436Z,27.73
2019-01-04T11:29:20.948Z,28.87
2019-01-04T11:33:02.171Z,25.80
2019-01-04T11:36:26.343Z,29.67
2019-01-04T11:39:49.056Z,27.97
2019-01-04T11:42:55.176Z,28.47
2019-01-04T11:45:56.292Z,29.37
2019-01-04T11:49:22.761Z,22.97
2019-01-04T11:52:22.602Z,29.23
2019-01-04T11:55:09.993Z,25.53
2019-01-04T11:57:57.355Z,26.20
2019-01-04T12:00:44.548Z,26.77
2019-01-04T12:03:32.168Z,25.07
2019-01-04T12:06:19.786Z,26.40
2019-01-04T12:09:08.672Z,27.67
2019-01-04T12:11:56.215Z,22.90
2019-01-04T12:14:46.198Z,25.50
2019-01-04T12:17:33.663Z,26.23
2019-01-04T12:20:21.412Z,22.27
2019-01-04T12:23:12.700Z,26.50
2019-01-04T12:26:00.391Z,25.70
2019-01-04T12:28:47.897Z,25.07
2019-01-04T12:31:35.333Z,22.83
2019-01-04T12:34:22.585Z,21.30
2019-01-04T12:37:10.237Z,19.57
2019-01-04T12:39:57.905Z,18.33
2019-01-04T12:42:44.988Z,19.77
2019-01-04T12:45:33.376Z,16.57
2019-01-04T12:48:20.855Z,17.27
2019-01-04T12:51:14.257Z,18.13
2019-01-04T12:54:15.714Z,19.50
2019-01-04T12:57:07.366Z,18.37
2019-01-04T13:03:11.774Z,19.17
2019-01-04T13:06:00.724Z,22.27
2019-01-04T13:08:50.299Z,20.00
2019-01-04T13:11:44.583Z,19.37
2019-01-04T13:14:36.503Z,21.60
2019-01-04T13:17:26.561Z,19.77
2019-01-04T13:20:24.163Z,20.77
2019-01-04T13:23:11.694Z,20.80
2019-01-04T13:25:59.288Z,21.90
2019-01-04T13:28:50.234Z,21.37
2019-01-04T13:31:38.144Z,22.47
2019-01-04T13:34:25.977Z,24.27
2019-01-04T13:37:13.960Z,23.27
2019-01-04T13:40:01.507Z,24.80
2019-01-04T13:42:49.609Z,23.57
2019-01-04T13:45:37.257Z,20.97
2019-01-04T13:48:25.351Z,25.30
2019-01-04T13:51:12.998Z,21.03
2019-01-04T13:54:07.695Z,19.97
2019-01-04T13:56:55.872Z,18.33
2019-01-04T13:59:43.656Z,19.47
2019-01-04T14:02:31.334Z,22.63
2019-01-04T14:05:19.005Z,19.97
2019-01-04T14:08:06.674Z,21.23
2019-01-04T14:10:54.195Z,22.03
2019-01-04T14:13:41.420Z,23.07
2019-01-04T14:16:29.116Z,22.20
2019-01-04T14:19:16.896Z,21.33
2019-01-04T14:22:04.620Z,20.87
2019-01-04T14:24:59.907Z,20.23
2019-01-04T14:27:55.773Z,21.80
2019-01-04T14:30:43.492Z,26.13
2019-01-04T14:33:33.575Z,23.10
2019-01-04T14:36:25.518Z,21.53
2019-01-04T14:39:17.161Z,21.83
2019-01-04T14:42:31.002Z,24.53
2019-01-04T14:45:20.694Z,23.40
2019-01-04T14:48:11.276Z,27.63
2019-01-04T14:51:01.646Z,27.00
2019-01-04T14:53:49.600Z,25.63
2019-01-04T14:56:44.700Z,32.03
2019-01-04T14:59:41.360Z,25.73
2019-01-04T15:02:31.548Z,24.47
2019-01-04T15:05:20.534Z,24.20
2019-01-04T15:08:08.357Z,26.70
2019-01-04T15:10:56.201Z,24.47
2019-01-04T15:13:44.212Z,23.13
2019-01-04T15:16:31.917Z,23.63
2019-01-04T15:19:19.653Z,24.43
2019-01-04T15:22:10.641Z,22.33
2019-01-04T15:24:58.457Z,31.80
2019-01-04T15:27:47.402Z,28.73
2019-01-04T15:30:35.042Z,26.33
2019-01-04T15:33:22.813Z,24.93
2019-01-04T15:36:10.664Z,25.10
2019-01-04T15:38:58.325Z,26.63
2019-01-04T15:41:45.946Z,28.93
2019-01-04T15:44:33.521Z,33.13
2019-01-04T15:47:21.361Z,28.67
2019-01-04T15:50:09.766Z,29.17
2019-01-04T15:52:57.249Z,32.23
2019-01-04T15:55:46.187Z,31.87
2019-01-04T15:58:33.786Z,30.43
2019-01-04T16:01:21.852Z,29.77
2019-01-04T16:04:09.616Z,28.67
2019-01-04T16:06:57.298Z,28.03
2019-01-04T16:09:45.309Z,26.57
2019-01-04T16:12:32.684Z,23.50
2019-01-04T16:15:19.926Z,28.00
2019-01-04T16:18:08.797Z,24.97
2019-01-04T16:20:56.841Z,25.03
2019-01-04T16:23:44.453Z,22.57
2019-01-04T16:26:32.305Z,23.37
2019-01-04T16:29:20.184Z,22.37
2019-01-04T16:32:11.685Z,22.53
2019-01-04T16:35:02.811Z,23.17
2019-01-04T16:37:50.753Z,20.77
2019-01-04T16:40:38.377Z,20.93
2019-01-04T16:43:26.405Z,24.47
2019-01-04T16:46:14.222Z,24.03
2019-01-04T16:49:01.937Z,20.10
2019-01-04T16:51:53.575Z,23.97
2019-01-04T16:54:42.870Z,23.57
2019-01-04T16:57:30.857Z,75.83
2019-01-04T17:00:19.935Z,45.17
2019-01-04T17:03:08.382Z,26.73
2019-01-04T17:05:56.757Z,27.33
2019-01-04T17:08:45.175Z,28.53
2019-01-04T17:11:33.136Z,30.67
2019-01-04T17:14:21.742Z,25.27
2019-01-04T17:17:10.109Z,24.50
2019-01-04T17:19:58.782Z,23.97
2019-01-04T17:22:46.537Z,26.63
2019-01-04T17:25:34.538Z,29.27
2019-01-04T17:28:22.260Z,25.80
2019-01-04T17:31:09.716Z,31.93
2019-01-04T17:33:57.287Z,23.47
2019-01-04T17:36:45.082Z,21.53
2019-01-04T17:39:32.629Z,23.37
2019-01-04T17:42:19.974Z,24.10
2019-01-04T17:45:07.999Z,24.53
2019-01-04T17:47:55.478Z,41.60
2019-01-04T17:50:43.099Z,29.03
2019-01-04T17:53:30.129Z,31.57
2019-01-04T17:56:17.379Z,23.93
2019-01-04T17:59:04.885Z,26.43
2019-01-04T18:01:52.518Z,26.03
2019-01-04T18:04:40.158Z,24.27
2019-01-04T18:07:27.757Z,24.83
2019-01-04T18:10:15.286Z,26.83
2019-01-04T18:13:02.541Z,22.37
2019-01-04T18:15:49.842Z,22.57
2019-01-04T18:18:37.059Z,25.30
2019-01-04T18:21:24.416Z,24.83
2019-01-04T18:24:11.890Z,31.77
2019-01-04T18:26:59.257Z,31.67
2019-01-04T18:29:46.378Z,22.10
2019-01-04T18:32:33.905Z,24.40
2019-01-04T18:35:21.924Z,25.27
2019-01-04T18:38:09.715Z,30.37
2019-01-04T18:40:57.251Z,25.50
2019-01-04T18:43:45.054Z,24.80
2019-01-04T18:46:32.690Z,23.77
2019-01-04T18:49:21.213Z,22.90
2019-01-04T18:52:09.049Z,23.73
2019-01-04T18:54:56.975Z,21.40
2019-01-04T18:57:44.377Z,24.70
2019-01-04T19:00:31.422Z,20.17
2019-01-04T19:03:18.518Z,22.07
2019-01-04T19:06:06.419Z,22.00
2019-01-04T19:08:54.149Z,19.53
2019-01-04T19:11:41.726Z,18.77
2019-01-04T19:14:30.062Z,20.43
2019-01-04T19:17:17.445Z,24.57
2019-01-04T19:20:04.980Z,19.80
2019-01-04T19:22:52.556Z,21.50
2019-01-04T19:25:40.443Z,20.27
2019-01-04T19:28:28.109Z,19.83
2019-01-04T19:31:16.467Z,17.83
2019-01-04T19:34:03.833Z,19.77
2019-01-04T19:36:50.935Z,15.20
2019-01-04T19:39:38.278Z,18.67
2019-01-04T19:42:25.989Z,19.93
2019-01-04T19:45:26.340Z,22.00
2019-01-04T19:48:14.075Z,21.13
2019-01-04T19:51:01.853Z,16.73
2019-01-04T19:53:49.312Z,21.53
2019-01-04T19:56:37.177Z,19.60
2019-01-04T19:59:25.176Z,19.10
2019-01-04T20:02:13.207Z,18.50
2019-01-04T20:05:00.787Z,22.60
2019-01-04T20:08:17.913Z,23.33
2019-01-04T20:11:53.061Z,20.90
2019-01-04T20:15:40.158Z,20.23
2019-01-04T20:18:52.918Z,29.50
2019-01-04T20:22:06.179Z,22.53
2019-01-04T20:25:15.922Z,22.67
2019-01-04T20:28:25.792Z,20.90
2019-01-04T20:31:39.965Z,21.13
2019-01-04T20:34:50.502Z,23.87
2019-01-04T20:38:26.665Z,22.10
2019-01-04T20:41:54.120Z,22.77
2019-01-04T20:44:59.286Z,23.13
2019-01-04T20:48:25.959Z,26.30
2019-01-04T20:51:44.109Z,24.53
2019-01-04T20:54:56.391Z,25.60
2019-01-04T20:58:11.803Z,27.10
2019-01-04T21:01:19.691Z,30.37
2019-01-04T21:04:33.239Z,29.87
2019-01-04T21:07:33.458Z,26.73
2019-01-04T21:10:42.280Z,27.70
2019-01-04T21:14:09.141Z,31.97
2019-01-04T21:17:23.244Z,32.43
2019-01-04T21:20:34.385Z,36.00
2019-01-04T21:23:47.788Z,36.33
2019-01-04T21:26:58.572Z,33.47
2019-01-04T21:30:05.143Z,38.77
2019-01-04T21:33:19.330Z,36.30
2019-01-04T21:36:35.671Z,39.13
2019-01-04T21:39:44.456Z,30.83
2019-01-04T21:43:02.934Z,30.23
2019-01-04T21:46:08.154Z,33.30
2019-01-04T21:49:13.465Z,31.27
2019-01-04T21:52:12.962Z,33.97
2019-01-04T21:55:20.577Z,30.70
2019-01-04T21:58:25.898Z,34.13
2019-01-04T22:01:31.062Z,34.30
2019-01-04T22:04:39.841Z,32.17
2019-01-04T22:07:50.614Z,35.37
2019-01-04T22:11:02.657Z,30.40
2019-01-04T22:14:10.559Z,30.20
2019-01-04T22:17:16.741Z,32.97
2019-01-04T22:20:36.621Z,43.70
2019-01-04T22:23:49.327Z,51.83
2019-01-04T22:26:54.806Z,31.43
2019-01-04T22:30:02.050Z,41.13
2019-01-04T22:33:32.322Z,51.90
2019-01-04T22:36:49.867Z,45.40
2019-01-04T22:40:15.479Z,87.00
2019-01-04T22:43:33.704Z,58.23
2019-01-04T22:46:42.034Z,80.97
2019-01-04T22:50:08.863Z,28.97
2019-01-04T22:53:17.793Z,39.47
2019-01-04T22:56:26.112Z,39.20
2019-01-04T22:59:34.327Z,27.93
2019-01-04T23:02:50.009Z,31.77
2019-01-04T23:06:01.004Z,38.80
2019-01-04T23:09:09.099Z,44.50
2019-01-04T23:12:22.305Z,31.00
2019-01-04T23:15:52.135Z,26.17
2019-01-04T23:19:00.688Z,28.13
2019-01-04T23:22:40.008Z,30.37
2019-01-04T23:29:35.668Z,28.30
2019-01-04T23:33:09.376Z,33.17
2019-01-04T23:36:23.515Z,33.73
2019-01-04T23:39:42.482Z,32.73
2019-01-04T23:42:52.522Z,36.23
2019-01-04T23:46:03.427Z,37.73
2019-01-04T23:49:05.392Z,39.23
2019-01-04T23:52:31.316Z,37.03
2019-01-04T23:55:37.856Z,33.50
2019-01-04T23:58:41.913Z,39.20
